Time;durP1;ratioP1;P1;durP2;ratioP2;P2;SDS_P1;SDS_P2;PMS_P1;PMS_P2;Temp;Humidity;BMP_temperature;BMP_pressure;BME280_temperature;BME280_humidity;BME280_pressure;Samples;Min_cycle;Max_cycle;Signal;HPM_P1;HPM_P2
2021/11/09 00:00:56;;;;;;;26.17;17.30;;;11.10;99.90;;;;;;5051559;28;20932;-49
2021/11/09 00:03:23;;;;;;;19.40;15.67;;;11.20;99.90;;;;;;5051745;28;20952;-49
2021/11/09 00:05:52;;;;;;;23.00;16.57;;;11.30;99.90;;;;;;5051497;28;20451;-49
2021/11/09 00:08:23;;;;;;;21.23;15.27;;;11.30;99.90;;;;;;5051298;28;20463;-49
2021/11/09 00:10:50;;;;;;;24.83;15.43;;;10.90;99.90;;;;;;5051653;28;20459;-49
2021/11/09 00:13:17;;;;;;;18.30;14.30;;;11.10;99.90;;;;;;5051444;28;20438;-49
2021/11/09 00:15:44;;;;;;;24.53;14.50;;;11.10;99.90;;;;;;5051252;28;20422;-49
2021/11/09 00:18:11;;;;;;;21.10;14.70;;;11.10;99.90;;;;;;5033110;28;20450;-49
2021/11/09 00:20:41;;;;;;;19.40;13.97;;;10.90;99.90;;;;;;5051306;28;20460;-49
2021/11/09 00:23:08;;;;;;;27.20;14.50;;;11.00;99.90;;;;;;5051456;28;20432;-48
2021/11/09 00:25:38;;;;;;;21.77;13.10;;;11.10;99.90;;;;;;5051296;28;20472;-49
2021/11/09 00:28:06;;;;;;;23.60;14.67;;;11.60;99.90;;;;;;5033171;28;20448;-49
2021/11/09 00:30:34;;;;;;;22.87;13.13;;;11.20;99.90;;;;;;5033210;28;20993;-50
2021/11/09 00:33:02;;;;;;;20.90;14.73;;;11.00;99.90;;;;;;5051160;28;20435;-50
2021/11/09 00:35:30;;;;;;;21.33;13.30;;;11.10;99.90;;;;;;5051284;28;20406;-48
2021/11/09 00:37:59;;;;;;;23.00;12.93;;;11.00;99.90;;;;;;5050978;28;20443;-48
2021/11/09 00:40:29;;;;;;;15.47;12.10;;;10.70;99.90;;;;;;5051275;28;20566;-49
2021/11/09 00:42:58;;;;;;;22.07;12.33;;;11.10;99.90;;;;;;5051180;28;20438;-49
2021/11/09 00:45:36;;;;;;;18.70;12.70;;;11.20;99.90;;;;;;5032955;28;20479;-48
2021/11/09 00:48:06;;;;;;;19.00;11.80;;;11.10;99.90;;;;;;5050842;28;20781;-49
2021/11/09 00:50:33;;;;;;;17.93;11.70;;;11.00;99.90;;;;;;5033083;28;20513;-48
2021/11/09 00:53:01;;;;;;;19.13;12.37;;;11.20;99.90;;;;;;5051229;28;21038;-48
2021/11/09 00:55:28;;;;;;;17.17;12.00;;;11.20;99.90;;;;;;5051063;28;20961;-48
2021/11/09 00:57:56;;;;;;;20.57;13.07;;;11.10;99.90;;;;;;5050589;28;20941;-48
2021/11/09 01:00:25;;;;;;;17.60;13.13;;;11.10;99.90;;;;;;5050795;28;20483;-47
2021/11/09 01:02:53;;;;;;;20.30;13.60;;;11.30;99.90;;;;;;5050892;28;20523;-48
2021/11/09 01:05:23;;;;;;;18.50;12.97;;;11.10;99.90;;;;;;5050956;28;20849;-48
2021/11/09 01:07:51;;;;;;;17.87;11.33;;;11.00;99.90;;;;;;5050732;28;20442;-47
2021/11/09 01:10:18;;;;;;;22.17;14.00;;;11.00;99.90;;;;;;5050785;28;20456;-48
2021/11/09 01:12:46;;;;;;;15.83;12.50;;;11.10;99.90;;;;;;5050913;28;20426;-48
2021/11/09 01:15:14;;;;;;;20.60;13.90;;;11.10;99.90;;;;;;5050903;28;20448;-48
2021/11/09 01:17:42;;;;;;;19.83;14.87;;;11.20;99.90;;;;;;5050734;28;20432;-47
2021/11/09 01:20:12;;;;;;;20.27;14.13;;;11.00;99.90;;;;;;5050896;28;20465;-47
2021/11/09 01:22:39;;;;;;;17.10;12.67;;;11.10;99.90;;;;;;5051128;28;20801;-49
2021/11/09 01:25:07;;;;;;;17.03;12.70;;;11.10;99.90;;;;;;5050831;28;20436;-49
2021/11/09 01:27:35;;;;;;;21.30;13.60;;;11.00;99.90;;;;;;5050936;28;20434;-48
2021/11/09 01:30:01;;;;;;;14.17;12.67;;;11.10;99.90;;;;;;5050538;28;20459;-48
2021/11/09 01:32:29;;;;;;;15.13;12.20;;;11.10;99.90;;;;;;5053673;28;20471;-49
2021/11/09 01:34:56;;;;;;;15.70;12.13;;;11.50;99.90;;;;;;5054580;28;20438;-49
2021/11/09 01:37:22;;;;;;;18.30;13.07;;;11.10;99.90;;;;;;5054576;28;20428;-49
2021/11/09 01:39:50;;;;;;;19.47;13.00;;;11.20;99.90;;;;;;5054171;28;20462;-48
2021/11/09 01:42:17;;;;;;;16.47;12.33;;;11.00;99.90;;;;;;5054459;28;20413;-49
2021/11/09 01:44:44;;;;;;;15.60;12.60;;;11.30;99.90;;;;;;5054751;28;20442;-48
2021/11/09 01:47:11;;;;;;;15.93;12.30;;;10.90;99.90;;;;;;5036240;28;20481;-49
2021/11/09 01:49:39;;;;;;;22.30;12.57;;;11.50;99.90;;;;;;5054000;28;20497;-49
2021/11/09 01:52:06;;;;;;;20.50;12.20;;;11.10;99.90;;;;;;5054137;28;20435;-49
2021/11/09 01:54:32;;;;;;;19.23;11.80;;;11.20;99.90;;;;;;5054524;28;20821;-49
2021/11/09 01:56:59;;;;;;;17.57;12.90;;;11.20;99.90;;;;;;5053938;28;20442;-49
2021/11/09 01:59:29;;;;;;;13.10;11.03;;;11.40;99.90;;;;;;5053501;28;20471;-49
2021/11/09 02:01:56;;;;;;;13.37;10.70;;;11.20;99.90;;;;;;5053972;28;20511;-49
2021/11/09 02:04:23;;;;;;;14.77;10.60;;;11.50;99.90;;;;;;5053999;28;20435;-49
2021/11/09 02:06:51;;;;;;;13.13;10.33;;;11.20;99.90;;;;;;5053771;28;20478;-49
2021/11/09 02:09:19;;;;;;;17.87;11.47;;;11.30;99.90;;;;;;5053346;28;20795;-48
2021/11/09 02:11:47;;;;;;;13.27;10.40;;;11.10;99.90;;;;;;5053801;28;20432;-49
2021/11/09 02:14:15;;;;;;;19.30;11.23;;;10.90;99.90;;;;;;5053868;28;20781;-50
2021/11/09 02:16:43;;;;;;;13.93;10.10;;;11.20;99.90;;;;;;5053725;28;20403;-49
2021/11/09 02:19:10;;;;;;;14.90;11.03;;;11.10;99.90;;;;;;5052972;28;20470;-48
2021/11/09 02:21:38;;;;;;;16.30;10.60;;;10.70;99.90;;;;;;5053715;28;20447;-49
2021/11/09 02:24:05;;;;;;;16.00;9.80;;;11.20;99.90;;;;;;5053899;28;20838;-48
2021/11/09 02:26:32;;;;;;;10.20;8.63;;;11.40;99.90;;;;;;5053556;28;20474;-49
2021/11/09 02:29:00;;;;;;;13.43;8.80;;;10.70;99.90;;;;;;5053113;28;20456;-49
2021/11/09 02:31:30;;;;;;;14.30;9.87;;;11.10;99.90;;;;;;5053330;28;20951;-48
2021/11/09 02:33:57;;;;;;;13.37;8.97;;;11.50;99.90;;;;;;5053327;28;20432;-47
2021/11/09 02:36:23;;;;;;;15.03;9.43;;;11.10;99.90;;;;;;5053394;28;20957;-49
2021/11/09 02:38:52;;;;;;;9.20;7.67;;;11.20;99.90;;;;;;5052891;28;20444;-50
2021/11/09 02:41:18;;;;;;;13.37;10.13;;;10.90;99.90;;;;;;5053308;28;20410;-49
2021/11/09 02:43:45;;;;;;;12.33;8.20;;;11.20;99.90;;;;;;5053110;28;20949;-49
2021/11/09 02:46:30;;;;;;;14.33;8.23;;;10.70;99.90;;;;;;5052978;28;20971;-49
2021/11/09 02:49:03;;;;;;;8.83;7.40;;;11.20;99.90;;;;;;5052830;28;20422;-50
2021/11/09 02:51:34;;;;;;;9.20;7.53;;;11.20;99.90;;;;;;5053179;28;20880;-49
2021/11/09 02:54:06;;;;;;;8.57;6.00;;;11.50;99.90;;;;;;5053078;28;20436;-48
2021/11/09 02:56:38;;;;;;;8.20;6.40;;;11.00;99.90;;;;;;5052717;28;20815;-47
2021/11/09 02:59:12;;;;;;;7.60;6.43;;;11.20;99.90;;;;;;5075967;23;20468;-51
2021/11/09 03:01:44;;;;;;;6.80;6.20;;;11.40;99.90;;;;;;5032736;28;20448;-52
2021/11/09 03:04:13;;;;;;;7.63;6.40;;;11.30;99.90;;;;;;5033314;28;20437;-51
2021/11/09 03:06:45;;;;;;;7.17;5.23;;;11.30;99.90;;;;;;5031834;28;20479;-51
2021/11/09 03:09:16;;;;;;;12.03;5.90;;;11.10;99.90;;;;;;5032623;28;20445;-51
2021/11/09 03:11:48;;;;;;;8.03;6.03;;;11.40;99.90;;;;;;5033103;28;20451;-51
2021/11/09 03:14:15;;;;;;;12.60;6.80;;;11.30;99.90;;;;;;5033278;28;20871;-51
2021/11/09 03:16:44;;;;;;;6.63;5.83;;;11.60;99.90;;;;;;5033005;28;20432;-51
2021/11/09 03:19:21;;;;;;;7.27;6.07;;;11.10;99.90;;;;;;5032638;28;20797;-51
2021/11/09 03:46:57;;;;;;;15.80;8.70;;;11.20;99.90;;;;;;4990616;28;20906;-50
2021/11/09 03:49:26;;;;;;;17.13;9.83;;;11.20;99.90;;;;;;4990462;28;20476;-51
2021/11/09 03:51:54;;;;;;;17.03;8.57;;;11.10;99.90;;;;;;5010332;28;20457;-51
2021/11/09 03:54:27;;;;;;;17.20;9.47;;;11.10;99.90;;;;;;5031829;28;20435;-51
2021/11/09 03:57:00;;;;;;;16.50;8.93;;;11.00;99.90;;;;;;5032065;28;20475;-51
2021/11/09 03:59:38;;;;;;;18.03;10.00;;;11.20;99.90;;;;;;5031686;28;20503;-51
2021/11/09 04:02:14;;;;;;;19.03;8.77;;;11.40;99.90;;;;;;5032289;28;20483;-51
2021/11/09 04:04:45;;;;;;;15.30;10.80;;;11.00;99.90;;;;;;5032195;28;20782;-51
2021/11/09 04:07:14;;;;;;;15.87;9.53;;;10.90;99.90;;;;;;5032160;28;20871;-51
2021/11/09 04:09:51;;;;;;;16.07;8.63;;;11.30;99.90;;;;;;5031442;28;20461;-51
2021/11/09 04:12:32;;;;;;;20.47;10.10;;;11.30;99.90;;;;;;5032028;28;20440;-51
2021/11/09 04:15:10;;;;;;;15.07;11.20;;;10.90;99.90;;;;;;5031835;28;20864;-51
2021/11/09 04:17:52;;;;;;;13.33;9.90;;;10.90;99.90;;;;;;5031671;28;20424;-50
2021/11/09 04:20:32;;;;;;;20.53;9.40;;;11.00;99.90;;;;;;5031902;28;20886;-51
2021/11/09 04:25:52;;;;;;;18.23;8.80;;;10.80;99.90;;;;;;5031333;28;20936;-53
2021/11/09 04:28:26;;;;;;;14.93;8.03;;;10.90;99.90;;;;;;5031196;28;20487;-51
2021/11/09 04:31:14;;;;;;;19.90;9.87;;;11.10;99.90;;;;;;5031903;28;20452;-51
2021/11/09 04:34:13;;;;;;;16.73;9.50;;;10.50;99.90;;;;;;5031665;28;20530;-51
2021/11/09 04:50:57;;;;;;;19.30;9.13;;;11.10;99.90;;;;;;5029996;28;21076;-51
2021/11/09 04:53:53;;;;;;;18.80;10.33;;;10.90;99.90;;;;;;5031824;28;20522;-51
2021/11/09 05:02:07;;;;;;;24.03;15.03;;;10.60;99.90;;;;;;5031095;28;20490;-51
2021/11/09 05:10:07;;;;;;;21.90;13.13;;;10.90;99.90;;;;;;5034744;28;20458;-51
2021/11/09 05:12:33;;;;;;;31.53;14.97;;;10.80;99.90;;;;;;5035286;28;20447;-51
2021/11/09 05:15:00;;;;;;;23.13;14.60;;;10.40;99.90;;;;;;5035117;28;20469;-51
2021/11/09 05:17:28;;;;;;;25.27;15.77;;;10.70;99.90;;;;;;5035015;28;20444;-51
2021/11/09 05:19:55;;;;;;;22.97;14.50;;;10.60;99.90;;;;;;5034663;28;20832;-51
2021/11/09 05:22:21;;;;;;;22.60;14.97;;;10.70;99.90;;;;;;5034931;28;20479;-51
2021/11/09 05:24:48;;;;;;;28.80;18.00;;;10.70;99.90;;;;;;5034921;28;20436;-51
2021/11/09 05:27:16;;;;;;;24.70;15.67;;;11.00;99.90;;;;;;5034712;28;20496;-51
2021/11/09 05:29:43;;;;;;;23.83;13.80;;;11.20;99.90;;;;;;5034155;28;20971;-50
2021/11/09 05:32:10;;;;;;;29.87;12.57;;;10.90;99.90;;;;;;5034725;28;20487;-50
2021/11/09 05:34:38;;;;;;;23.40;14.00;;;10.90;99.90;;;;;;5033475;28;20455;-50
2021/11/09 05:37:08;;;;;;;17.77;11.13;;;10.90;99.90;;;;;;5034576;28;20432;-50
2021/11/09 05:39:43;;;;;;;17.57;10.43;;;10.80;99.90;;;;;;5032862;28;20467;-50
2021/11/09 05:42:10;;;;;;;16.60;10.87;;;11.00;99.90;;;;;;5032959;28;20971;-50
2021/11/09 05:44:36;;;;;;;17.93;11.87;;;10.90;99.90;;;;;;5034101;28;20937;-50
2021/11/09 05:47:04;;;;;;;15.47;10.23;;;10.90;99.90;;;;;;5034415;28;20514;-50
2021/11/09 05:49:32;;;;;;;23.80;12.93;;;11.00;99.90;;;;;;5034058;28;20455;-51
2021/11/09 05:52:00;;;;;;;21.83;12.40;;;10.90;99.90;;;;;;5034279;28;20475;-50
2021/11/09 05:54:27;;;;;;;27.03;12.60;;;10.90;99.90;;;;;;5034189;28;20811;-50
2021/11/09 05:56:53;;;;;;;24.10;12.57;;;11.40;99.90;;;;;;5034191;28;20448;-50
2021/11/09 05:59:20;;;;;;;25.57;15.37;;;10.60;99.90;;;;;;5034156;28;20441;-50
2021/11/09 06:01:47;;;;;;;29.83;12.50;;;10.30;99.90;;;;;;5034280;28;20902;-50
2021/11/09 06:04:14;;;;;;;22.10;12.17;;;11.10;99.90;;;;;;5034132;28;20438;-51
2021/11/09 06:06:40;;;;;;;20.23;11.93;;;11.00;99.90;;;;;;5033692;28;20462;-50
2021/11/09 06:09:09;;;;;;;23.17;11.57;;;11.00;99.90;;;;;;5033043;28;20435;-52
2021/11/09 06:11:35;;;;;;;20.57;11.27;;;10.90;99.90;;;;;;5033749;28;20805;-50
2021/11/09 06:14:02;;;;;;;22.10;12.57;;;11.00;99.90;;;;;;5034036;28;20508;-50
2021/11/09 06:16:29;;;;;;;24.63;14.73;;;10.80;99.90;;;;;;5033311;28;20445;-51
2021/11/09 06:18:55;;;;;;;26.37;13.97;;;10.60;99.90;;;;;;5032730;28;20441;-50
2021/11/09 06:21:22;;;;;;;19.83;11.73;;;11.00;99.90;;;;;;5033411;28;20464;-50
2021/11/09 06:23:50;;;;;;;22.43;13.27;;;10.70;99.90;;;;;;5033516;28;20436;-50
2021/11/09 06:26:18;;;;;;;15.20;11.37;;;10.70;99.90;;;;;;5032830;28;20444;-50
2021/11/09 06:28:45;;;;;;;22.53;11.90;;;10.60;99.90;;;;;;5032882;28;20479;-50
2021/11/09 06:31:12;;;;;;;20.83;14.10;;;10.90;99.90;;;;;;5032704;28;20562;-53
2021/11/09 06:33:38;;;;;;;21.00;13.40;;;11.00;99.90;;;;;;5032949;28;20432;-52
2021/11/09 06:36:05;;;;;;;20.40;13.10;;;11.10;99.90;;;;;;5032948;28;20510;-53
2021/11/09 06:38:33;;;;;;;23.33;12.73;;;10.90;99.90;;;;;;5032408;28;20944;-52
2021/11/09 06:41:00;;;;;;;23.53;12.97;;;11.30;99.90;;;;;;5032744;28;20892;-52
2021/11/09 06:43:28;;;;;;;21.23;12.20;;;11.00;99.90;;;;;;5032809;28;20448;-52
2021/11/09 06:45:56;;;;;;;23.87;12.37;;;11.00;99.90;;;;;;5033102;28;20967;-52
2021/11/09 06:48:24;;;;;;;26.77;13.73;;;11.00;99.90;;;;;;5031864;28;20481;-52
2021/11/09 06:50:51;;;;;;;23.73;13.97;;;10.90;99.90;;;;;;5032213;28;20435;-52
2021/11/09 06:53:17;;;;;;;28.87;13.63;;;10.50;99.90;;;;;;5031993;28;20441;-52
2021/11/09 06:55:44;;;;;;;26.73;12.80;;;10.90;99.90;;;;;;5032492;28;20945;-51
2021/11/09 06:58:11;;;;;;;23.47;14.43;;;10.80;99.90;;;;;;5031251;28;20445;-52
2021/11/09 07:00:39;;;;;;;26.47;14.40;;;11.30;99.90;;;;;;5032630;28;20980;-51
2021/11/09 07:03:06;;;;;;;23.20;13.17;;;11.00;99.90;;;;;;5032437;28;20442;-52
2021/11/09 07:05:32;;;;;;;18.77;12.47;;;11.00;99.90;;;;;;5032647;28;20757;-52
2021/11/09 07:07:59;;;;;;;20.50;12.30;;;11.10;99.90;;;;;;5031528;28;20479;-52
2021/11/09 07:10:26;;;;;;;20.67;13.07;;;11.00;99.90;;;;;;5012538;28;20523;-52
2021/11/09 07:12:53;;;;;;;26.70;14.13;;;11.20;99.90;;;;;;5012062;28;20940;-52
2021/11/09 07:15:20;;;;;;;20.23;13.23;;;11.20;99.90;;;;;;5012652;28;20430;-52
2021/11/09 07:17:49;;;;;;;24.17;14.33;;;10.70;99.90;;;;;;5010778;28;20481;-52
2021/11/09 07:20:18;;;;;;;19.70;13.27;;;11.30;99.90;;;;;;5012631;28;20526;-51
2021/11/09 07:22:46;;;;;;;25.30;15.00;;;11.10;99.90;;;;;;5012679;28;20732;-51
2021/11/09 07:25:13;;;;;;;28.43;14.67;;;11.70;99.90;;;;;;5012425;28;20917;-51
2021/11/09 07:27:42;;;;;;;18.00;12.87;;;11.40;99.90;;;;;;5012002;28;20499;-52
2021/11/09 07:30:10;;;;;;;28.63;13.40;;;11.20;99.90;;;;;;5010635;28;20471;-52
2021/11/09 07:32:37;;;;;;;30.03;12.97;;;11.20;99.90;;;;;;5012299;28;20527;-51
2021/11/09 07:35:07;;;;;;;25.50;12.53;;;11.60;99.90;;;;;;5011235;28;20459;-51
2021/11/09 07:37:34;;;;;;;23.13;13.13;;;11.30;99.90;;;;;;5012192;28;20434;-51
2021/11/09 07:40:01;;;;;;;19.63;12.10;;;11.60;99.90;;;;;;5011916;28;20974;-51
2021/11/09 07:42:27;;;;;;;27.27;13.63;;;11.50;99.90;;;;;;5011933;28;20817;-51
2021/11/09 07:44:54;;;;;;;35.43;10.50;;;11.00;99.90;;;;;;5012149;28;20796;-51
2021/11/09 07:47:21;;;;;;;21.47;12.43;;;11.40;99.90;;;;;;5011770;28;20506;-51
2021/11/09 07:49:47;;;;;;;27.40;12.40;;;11.10;99.90;;;;;;5011485;28;20448;-51
2021/11/09 07:52:15;;;;;;;22.50;12.43;;;11.30;99.90;;;;;;5011675;28;20806;-51
2021/11/09 07:54:45;;;;;;;25.83;13.63;;;11.50;99.90;;;;;;5011993;28;20879;-52
2021/11/09 07:57:14;;;;;;;18.30;12.40;;;11.50;99.90;;;;;;5022775;28;20463;-52
2021/11/09 07:59:48;;;;;;;21.60;14.40;;;11.50;99.90;;;;;;5031032;28;21007;-51
2021/11/09 08:02:25;;;;;;;25.63;14.00;;;11.00;99.90;;;;;;5030863;28;20425;-51
2021/11/09 08:04:55;;;;;;;20.77;11.83;;;11.40;99.90;;;;;;5031401;28;20483;-51
2021/11/09 08:07:24;;;;;;;24.57;13.30;;;11.50;99.90;;;;;;5031586;28;20473;-52
2021/11/09 08:09:52;;;;;;;25.20;13.30;;;11.00;99.90;;;;;;5030777;28;20461;-52
2021/11/09 08:12:18;;;;;;;19.00;13.73;;;12.00;99.90;;;;;;5031557;28;20410;-51
2021/11/09 08:14:45;;;;;;;22.17;12.37;;;11.90;99.90;;;;;;5031225;28;20456;-61
2021/11/09 08:17:14;;;;;;;18.03;13.43;;;11.50;99.90;;;;;;5029871;28;20455;-52
2021/11/09 08:19:41;;;;;;;18.47;12.70;;;11.80;99.90;;;;;;5030927;28;20525;-52
2021/11/09 08:22:08;;;;;;;23.03;14.00;;;11.40;99.90;;;;;;5030837;28;20420;-52
2021/11/09 08:24:36;;;;;;;26.63;15.40;;;11.50;99.90;;;;;;5030560;28;20582;-52
2021/11/09 08:27:05;;;;;;;23.40;14.67;;;11.30;99.90;;;;;;5030823;28;20439;-53
2021/11/09 08:29:32;;;;;;;26.87;14.97;;;11.60;99.90;;;;;;5030212;28;20582;-52
2021/11/09 08:32:00;;;;;;;27.83;14.77;;;11.60;99.90;;;;;;5029169;28;20475;-52
2021/11/09 08:34:32;;;;;;;24.03;13.80;;;11.40;99.90;;;;;;5030594;28;20800;-52
2021/11/09 08:36:59;;;;;;;31.00;18.50;;;11.60;99.90;;;;;;5030909;28;20441;-52
2021/11/09 08:39:32;;;;;;;26.93;12.33;;;11.90;99.90;;;;;;5029686;28;20852;-52
2021/11/09 08:42:11;;;;;;;22.10;12.10;;;11.30;99.90;;;;;;5031126;28;20451;-52
2021/11/09 08:44:42;;;;;;;23.30;12.70;;;11.40;99.90;;;;;;5030947;28;20538;-51
2021/11/09 08:47:10;;;;;;;20.80;12.40;;;11.80;99.90;;;;;;5030375;28;20443;-51
2021/11/09 08:49:37;;;;;;;20.70;12.93;;;12.10;99.90;;;;;;5030800;28;20901;-52
2021/11/09 08:52:11;;;;;;;24.37;12.70;;;11.90;99.90;;;;;;5030388;28;20922;-52
2021/11/09 08:54:38;;;;;;;17.77;11.80;;;11.60;99.90;;;;;;5031174;28;20432;-52
2021/11/09 08:57:17;;;;;;;21.20;14.27;;;11.60;99.90;;;;;;5030872;28;20524;-51
2021/11/09 09:05:15;;;;;;;23.47;13.00;;;11.60;99.90;;;;;;5030978;28;20443;-52
2021/11/09 09:07:43;;;;;;;26.50;14.80;;;11.70;99.90;;;;;;5030109;28;20481;-51
2021/11/09 09:10:12;;;;;;;19.63;12.60;;;11.60;99.90;;;;;;5030634;28;20960;-51
2021/11/09 09:12:41;;;;;;;30.77;12.37;;;11.40;99.90;;;;;;5031056;28;20441;-51
2021/11/09 09:15:10;;;;;;;23.10;13.07;;;11.90;99.90;;;;;;5030821;28;20440;-51
2021/11/09 09:17:37;;;;;;;23.00;11.97;;;12.20;99.90;;;;;;5030331;28;20453;-52
2021/11/09 09:20:09;;;;;;;21.47;11.90;;;11.50;99.90;;;;;;5030036;28;20459;-51
2021/11/09 09:22:40;;;;;;;29.00;11.33;;;12.00;99.90;;;;;;5030720;28;20942;-52
2021/11/09 09:25:17;;;;;;;17.00;12.30;;;12.10;99.90;;;;;;5030480;28;20441;-52
2021/11/09 09:28:19;;;;;;;24.23;11.37;;;12.10;99.90;;;;;;5030135;28;20455;-51
2021/11/09 09:30:55;;;;;;;18.43;11.50;;;11.90;99.90;;;;;;5030301;28;20972;-51
2021/11/09 09:33:42;;;;;;;22.00;12.80;;;11.70;99.90;;;;;;5030916;28;20845;-51
2021/11/09 09:52:51;;;;;;;22.73;11.10;;;12.60;99.90;;;;;;5009304;28;20437;-51
2021/11/09 09:55:24;;;;;;;23.10;11.20;;;12.30;99.90;;;;;;5033995;28;20471;-51
2021/11/09 09:57:51;;;;;;;19.30;10.67;;;12.70;99.90;;;;;;5033237;28;20796;-51
2021/11/09 10:00:20;;;;;;;16.50;10.60;;;12.30;99.90;;;;;;5033852;28;20518;-52
2021/11/09 10:02:50;;;;;;;20.10;11.80;;;12.50;99.90;;;;;;5033708;28;20435;-52
2021/11/09 10:05:17;;;;;;;21.60;11.77;;;12.60;99.90;;;;;;5026047;28;20446;-52
2021/11/09 10:07:47;;;;;;;22.17;12.60;;;12.50;99.90;;;;;;5013843;28;20504;-52
2021/11/09 10:10:17;;;;;;;22.20;12.57;;;12.60;99.90;;;;;;5031857;28;20846;-51
2021/11/09 10:12:46;;;;;;;23.60;11.60;;;12.60;99.90;;;;;;5033921;28;20447;-51
2021/11/09 10:15:15;;;;;;;28.03;12.27;;;12.60;99.90;;;;;;5033480;28;20431;-51
2021/11/09 10:17:46;;;;;;;18.70;11.20;;;12.60;99.90;;;;;;5033377;28;20438;-51
2021/11/09 10:20:16;;;;;;;16.90;11.77;;;12.60;99.90;;;;;;5033353;28;20453;-51
2021/11/09 10:22:44;;;;;;;17.73;10.73;;;12.60;99.90;;;;;;5033199;28;20442;-51
2021/11/09 10:25:14;;;;;;;22.93;11.53;;;12.80;99.90;;;;;;5033708;28;20564;-52
2021/11/09 10:27:42;;;;;;;18.83;11.33;;;12.50;99.90;;;;;;5032925;28;20442;-52
2021/11/09 10:30:12;;;;;;;18.10;11.10;;;12.90;99.90;;;;;;5033342;28;20454;-51
2021/11/09 10:32:40;;;;;;;22.33;11.70;;;12.90;99.90;;;;;;5033015;28;20580;-51
2021/11/09 10:35:11;;;;;;;19.77;12.37;;;12.90;99.90;;;;;;5033031;28;20450;-51
2021/11/09 10:37:39;;;;;;;18.57;13.13;;;13.00;99.90;;;;;;5033189;28;20435;-52
2021/11/09 10:40:11;;;;;;;14.97;10.77;;;13.40;99.90;;;;;;5033522;28;20994;-51
2021/11/09 10:42:40;;;;;;;17.10;10.13;;;13.10;99.90;;;;;;5033035;28;20481;-51
2021/11/09 10:45:10;;;;;;;15.07;10.13;;;12.70;99.90;;;;;;5032651;28;20439;-51
2021/11/09 10:47:40;;;;;;;17.37;11.10;;;13.20;99.90;;;;;;5032489;28;20511;-51
2021/11/09 10:50:15;;;;;;;17.77;11.30;;;13.20;99.90;;;;;;5032679;28;20464;-51
2021/11/09 10:52:42;;;;;;;15.33;9.17;;;13.60;99.90;;;;;;5032848;28;20504;-52
2021/11/09 10:55:15;;;;;;;19.30;9.60;;;13.40;99.90;;;;;;5032769;28;20533;-51
2021/11/09 10:57:55;;;;;;;13.97;8.53;;;13.50;99.90;;;;;;5032240;28;20530;-51
2021/11/09 11:03:16;;;;;;;16.07;8.83;;;13.70;99.90;;;;;;5032534;28;20485;-51
2021/11/09 11:03:57;;;;;;;14.83;9.00;;;13.30;99.90;;;;;;5032755;28;20537;-52
2021/11/09 11:06:28;;;;;;;11.57;7.60;;;13.40;99.90;;;;;;5032292;28;20958;-51
2021/11/09 11:08:56;;;;;;;13.17;8.03;;;13.40;99.90;;;;;;5032388;28;20818;-51
2021/11/09 11:11:26;;;;;;;9.43;7.10;;;13.70;99.90;;;;;;5032691;28;20993;-51
2021/11/09 11:13:54;;;;;;;11.50;7.97;;;13.50;99.90;;;;;;5032815;28;20443;-51
2021/11/09 11:16:25;;;;;;;15.67;7.60;;;13.50;99.90;;;;;;5032650;28;20431;-52
2021/11/09 11:18:54;;;;;;;12.53;7.97;;;13.20;99.90;;;;;;5032273;28;20856;-51
2021/11/09 11:21:23;;;;;;;19.97;7.80;;;13.50;99.90;;;;;;5032177;28;20458;-51
2021/11/09 11:23:51;;;;;;;10.77;7.63;;;13.60;99.90;;;;;;5032344;28;20436;-51
2021/11/09 11:26:19;;;;;;;12.30;6.90;;;14.00;99.90;;;;;;5032219;28;20427;-52
2021/11/09 11:28:50;;;;;;;12.40;6.50;;;14.00;99.90;;;;;;5032020;28;20481;-51
2021/11/09 11:31:18;;;;;;;11.07;6.70;;;13.60;99.90;;;;;;5031639;28;20490;-51
2021/11/09 11:33:46;;;;;;;11.60;5.20;;;13.70;99.90;;;;;;5032176;28;20500;-51
2021/11/09 11:36:12;;;;;;;18.07;6.53;;;13.60;99.90;;;;;;5032369;28;20439;-51
2021/11/09 11:38:41;;;;;;;20.70;8.90;;;13.90;99.90;;;;;;5031504;28;20442;-51
2021/11/09 11:41:10;;;;;;;9.27;5.90;;;13.60;99.90;;;;;;5032045;28;20451;-52
2021/11/09 11:43:56;;;;;;;22.23;6.30;;;13.70;99.90;;;;;;5032106;28;20443;-52
2021/11/09 11:46:45;;;;;;;15.90;6.83;;;13.60;99.90;;;;;;5031782;28;20466;-51
2021/11/09 11:49:14;;;;;;;5.80;3.60;;;13.60;99.90;;;;;;5031121;28;20482;-52
2021/11/09 11:52:05;;;;;;;5.77;3.20;;;13.60;99.90;;;;;;5031248;28;20428;-52
2021/11/09 11:54:58;;;;;;;6.07;3.37;;;13.60;99.90;;;;;;5031224;28;20440;-51
2021/11/09 11:57:44;;;;;;;7.20;2.70;;;14.10;99.90;;;;;;5031206;28;20843;-52
2021/11/09 12:00:40;;;;;;;7.83;2.57;;;14.00;99.90;;;;;;5031255;28;20478;-51
2021/11/09 12:03:34;;;;;;;9.27;3.00;;;13.70;99.90;;;;;;5031634;28;20535;-51
2021/11/09 12:06:02;;;;;;;9.80;2.80;;;13.70;99.90;;;;;;5031097;28;20447;-51
2021/11/09 12:08:37;;;;;;;8.87;2.97;;;13.70;99.90;;;;;;5029095;28;20471;-51
2021/11/09 12:11:05;;;;;;;6.70;3.50;;;13.60;99.90;;;;;;5029361;28;20477;-51
2021/11/09 12:13:54;;;;;;;9.87;3.90;;;13.70;99.90;;;;;;5031266;28;20449;-52
2021/11/09 12:16:39;;;;;;;8.23;3.43;;;13.70;99.90;;;;;;5029310;28;20541;-52
2021/11/09 12:19:06;;;;;;;5.70;3.10;;;13.70;99.90;;;;;;5030751;28;20474;-51
2021/11/09 12:21:40;;;;;;;7.53;3.10;;;13.60;99.90;;;;;;5031250;28;20451;-52
2021/11/09 12:24:19;;;;;;;5.37;2.60;;;13.70;99.90;;;;;;5031076;28;21094;-51
2021/11/09 12:26:48;;;;;;;6.57;3.10;;;13.70;99.90;;;;;;5031076;28;20756;-52
2021/11/09 12:29:45;;;;;;;8.60;3.00;;;13.60;99.90;;;;;;5030276;28;20558;-51
2021/11/09 12:32:25;;;;;;;5.00;3.47;;;13.70;99.90;;;;;;5030686;28;20550;-52
2021/11/09 12:35:01;;;;;;;7.60;3.20;;;13.70;99.90;;;;;;5031328;28;20445;-52
2021/11/09 12:37:28;;;;;;;13.07;3.10;;;13.60;99.90;;;;;;5031256;28;20886;-51
2021/11/09 12:40:30;;;;;;;7.47;3.17;;;13.40;99.90;;;;;;5030218;28;20459;-51
2021/11/09 12:43:13;;;;;;;4.70;3.23;;;13.60;99.90;;;;;;5030033;28;20495;-52
2021/11/09 12:45:44;;;;;;;8.93;3.30;;;13.60;99.90;;;;;;5031020;28;20442;-52
2021/11/09 12:48:12;;;;;;;17.87;3.17;;;13.50;99.90;;;;;;5030329;28;20451;-51
2021/11/09 12:50:50;;;;;;;7.27;2.90;;;13.60;99.90;;;;;;5030729;28;20462;-51
2021/11/09 12:53:21;;;;;;;6.97;3.80;;;13.60;99.90;;;;;;5030801;28;20442;-51
2021/11/09 12:56:00;;;;;;;8.30;4.10;;;13.60;99.90;;;;;;5030576;28;20438;-51
2021/11/09 12:58:29;;;;;;;10.63;4.47;;;13.60;99.90;;;;;;5030252;28;20435;-52
2021/11/09 13:01:25;;;;;;;11.13;4.03;;;13.60;99.90;;;;;;5030068;28;20986;-52
2021/11/09 13:04:03;;;;;;;7.97;4.00;;;13.40;99.90;;;;;;5030782;28;20439;-52
2021/11/09 13:06:42;;;;;;;8.23;4.73;;;13.40;99.90;;;;;;5030669;28;20969;-50
2021/11/09 13:09:16;;;;;;;8.10;4.20;;;13.40;99.90;;;;;;5030069;28;20541;-50
2021/11/09 13:11:48;;;;;;;11.20;3.83;;;12.90;99.90;;;;;;5030429;28;20426;-52
2021/11/09 13:14:15;;;;;;;6.83;3.30;;;13.30;99.90;;;;;;5030471;28;20418;-51
2021/11/09 13:16:45;;;;;;;9.40;4.47;;;13.60;99.90;;;;;;5030697;28;20438;-52
2021/11/09 13:19:12;;;;;;;10.77;4.30;;;13.20;99.90;;;;;;5030088;28;20397;-52
2021/11/09 13:21:40;;;;;;;10.43;4.50;;;13.20;99.90;;;;;;5030517;28;20879;-50
2021/11/09 13:24:08;;;;;;;9.50;3.90;;;12.80;99.90;;;;;;5030622;28;21111;-52
2021/11/09 13:26:35;;;;;;;12.80;3.90;;;13.10;99.90;;;;;;5030914;28;20844;-50
2021/11/09 13:29:07;;;;;;;9.83;4.30;;;13.00;99.90;;;;;;5034118;28;20475;-52
2021/11/09 13:31:35;;;;;;;6.93;2.90;;;13.00;99.90;;;;;;5034338;28;20451;-50
2021/11/09 13:34:04;;;;;;;6.27;3.70;;;13.00;99.90;;;;;;5034314;28;20533;-52
2021/11/09 13:36:31;;;;;;;12.20;3.80;;;13.10;99.90;;;;;;5034178;28;20708;-51
2021/11/09 13:38:58;;;;;;;9.63;3.53;;;13.00;99.90;;;;;;5034004;28;20444;-51
2021/11/09 13:41:31;;;;;;;14.53;4.30;;;13.50;99.90;;;;;;5033998;28;20457;-51
2021/11/09 13:44:01;;;;;;;12.40;3.80;;;13.50;99.90;;;;;;5034141;28;20409;-51
2021/11/09 13:46:31;;;;;;;11.43;4.70;;;12.80;99.90;;;;;;5033567;28;20428;-51
2021/11/09 13:49:00;;;;;;;10.10;3.73;;;13.30;99.90;;;;;;5033383;28;20665;-51
2021/11/09 13:51:30;;;;;;;5.90;3.90;;;13.30;99.90;;;;;;5033359;28;20418;-50
2021/11/09 13:54:00;;;;;;;10.03;4.70;;;13.30;99.90;;;;;;5033840;28;20441;-51
2021/11/09 13:56:27;;;;;;;11.90;5.07;;;13.00;99.90;;;;;;5033934;28;20506;-50
2021/11/09 13:58:59;;;;;;;10.00;4.23;;;13.20;99.90;;;;;;5033844;28;20435;-51
2021/11/09 14:01:35;;;;;;;7.37;3.73;;;12.90;99.90;;;;;;5032952;28;20902;-51
2021/11/09 14:04:08;;;;;;;5.03;2.90;;;12.90;99.90;;;;;;5033457;28;20446;-51
2021/11/09 14:12:45;;;;;;;8.23;3.00;;;13.40;99.90;;;;;;5065951;28;20449;-51